Lyon Station, PA (19536)

7:59 AM EDT en Octubre 21, 2014 (GMT -0400)
Richmond Twp/Fleetwood Boro | Change Station
CLOSE
Current Station
Estación meteorológica personal
Location: Fleetwood, PA
Altura: 381 ft
Estaciones meteorológicas cercanas

Alt 381 ft 40.46 °N, 75.84 °W | Updated 6 minutes ago

Nublado
Nublado
48.7 ° F
Sensación térmica 49 ° F
N
0.0
Viento Variable Viento desde ENE

Hoy
Alta -- | Baja -- ° F
--% Posibilidad de precipitaciones
Ayer
Alta -- | Baja -- ° F
Precip. -- pul
7:20 AM 6:14 PM
Creciente menguante, 6% visible
Presión 29.88 pul
Visibilidad 0.8 Millas
Nubes Baja 7500 ft
Vientos helados 49 ° F
Punto de rocío 48 ° F
Humedad 99%
Precipitaciones 0.11 pul
Espesor de la nieve No disponible.
UV 0 de una escala de 12
Polen .30 de una escala de 12
Ozono Buena
PM2.5 Buena
Flu Activity Sporadic
METAR KRDG 211154Z AUTO 00000KT 3/4SM R36/4000VP6000FT BR FEW075 11/09 A2987 RMK AO2 SLP119 60004 70005 T01060094 10128 20106 51004

More Conditions Fewer Conditions

Presión 29.88 pul
Visibilidad 0.8 Millas
Nubes Baja 7500 ft
Vientos helados 49 ° F
Punto de rocío 48 ° F
Humedad 99%
Precipitaciones 0.11 pul
Espesor de la nieve No disponible.
UV 0 de una escala de 12
Polen .30 de una escala de 12
Ozono Buena
PM2.5 Buena
Flu Activity Sporadic
METAR KRDG 211154Z AUTO 00000KT 3/4SM R36/4000VP6000FT BR FEW075 11/09 A2987 RMK AO2 SLP119 60004 70005 T01060094 10128 20106 51004

More Conditions Fewer Conditions

10-Day Weather Forecast

Almanac

Astronomía

Oct. 21, 2014 Salida Puesta
Hora real 7:20 AM EDT 6:14 PM EDT
Crepúsculo civil 6:52 AM EDT 6:41 PM EDT
Crepúsculo náutico 6:20 AM EDT 7:13 PM EDT
Crepúsculo astronómico 5:49 AM EDT 7:45 PM EDT
Luna 5:02 AM EDT 5:07 PM EDT
Horas de luz 11h 49m
Horas de luz
10h 53m
Tomorrow will be 2m 31s shorter.
Creciente menguante, 6% of the Moon is Illuminated
Hoy
Creciente menguante
Oct 23
Nueva
Oct 30
Cuarto creciente
Nov 6
Luna llena
Nov 14
Cuarto menguante

Extremos de hoy

Máximos del estado Bajos del estado

Community

WunderPhotos

Upload Photos

1,763,631 ¡fotos cargadas!

Nearby

Calidad del aire

  Calidad del aire Índice AQ Contaminante
Ayer Buena
PM2.5
Ayer Buena
OZONE
Real Buena
PM2.5
Real Buena
OZONE
Martes Moderada
PM2.5
Miércoles Buena
PM2.5

Grosos de nieve

Estación Profundido Altura
No tenemos constancia de nieve nueva.

Actividad de terremotos

Ciudad Distance Mag. Tiempo y dato
No hay informes recientes de la actividad sísmica.
Magnitud mínima muestra es 2,5.

Temperaturas de aguas costeras

Lugar Temperatura
Sin partes meteorológicos de las estaciones

Estaciones meteorológicas cercanas